createdAt,value
2023-07-06T00:01:47.015Z,17.49
2023-07-06T00:04:15.572Z,17.51
2023-07-06T00:06:43.732Z,17.54
2023-07-06T00:09:10.977Z,17.60
2023-07-06T00:11:39.991Z,17.67
2023-07-06T00:14:08.862Z,17.75
2023-07-06T00:16:37.185Z,17.81
2023-07-06T00:19:05.151Z,17.75
2023-07-06T00:21:31.948Z,17.65
2023-07-06T00:23:58.767Z,17.60
2023-07-06T00:26:25.520Z,17.53
2023-07-06T00:28:54.813Z,17.51
2023-07-06T00:31:35.298Z,17.45
2023-07-06T00:34:06.446Z,17.43
2023-07-06T00:36:38.974Z,17.50
2023-07-06T00:39:07.755Z,17.46
2023-07-06T00:41:35.209Z,17.43
2023-07-06T00:44:01.870Z,17.48
2023-07-06T00:46:34.664Z,17.56
2023-07-06T00:49:03.826Z,17.50
2023-07-06T00:51:35.681Z,17.44
2023-07-06T00:54:09.547Z,17.45
2023-07-06T00:56:41.766Z,17.45
2023-07-06T00:59:12.466Z,17.43
2023-07-06T01:01:43.572Z,17.40
2023-07-06T01:04:14.425Z,17.41
2023-07-06T01:06:52.247Z,17.37
2023-07-06T01:09:20.456Z,17.28
2023-07-06T01:11:50.941Z,17.21
2023-07-06T01:14:17.661Z,17.19
2023-07-06T01:16:51.966Z,17.22
2023-07-06T01:19:35.533Z,17.32
2023-07-06T01:22:33.829Z,17.33
2023-07-06T01:25:28.681Z,17.42
2023-07-06T01:28:15.196Z,17.39
2023-07-06T01:30:54.992Z,17.38
2023-07-06T01:33:57.318Z,17.34
2023-07-06T01:36:35.843Z,17.33
2023-07-06T01:39:17.717Z,17.26
2023-07-06T01:41:44.610Z,17.22
2023-07-06T01:44:15.056Z,17.23
2023-07-06T01:46:49.175Z,17.22
2023-07-06T01:49:15.787Z,17.15
2023-07-06T01:51:57.356Z,17.12
2023-07-06T01:54:34.142Z,17.06
2023-07-06T01:57:07.660Z,17.05
2023-07-06T01:59:38.327Z,17.04
2023-07-06T02:02:08.321Z,17.00
2023-07-06T02:04:38.312Z,17.02
2023-07-06T02:07:07.218Z,17.09
2023-07-06T02:09:44.082Z,17.01
2023-07-06T02:12:12.607Z,17.01
2023-07-06T02:14:39.760Z,16.99
2023-07-06T02:17:08.524Z,16.86
2023-07-06T02:19:36.397Z,16.81
2023-07-06T02:22:05.144Z,16.65
2023-07-06T02:24:32.730Z,16.59
2023-07-06T02:26:59.405Z,16.48
2023-07-06T02:29:26.062Z,16.39
2023-07-06T02:31:53.504Z,16.27
2023-07-06T02:34:28.100Z,16.29
2023-07-06T02:36:56.750Z,16.23
2023-07-06T02:39:27.159Z,16.19
2023-07-06T02:41:58.217Z,16.10
2023-07-06T02:44:25.550Z,16.08
2023-07-06T02:46:53.108Z,16.06
2023-07-06T02:49:20.758Z,15.99
2023-07-06T02:51:50.535Z,15.98
2023-07-06T02:54:19.902Z,15.92
2023-07-06T02:56:46.599Z,15.90
2023-07-06T02:59:15.219Z,15.86
2023-07-06T03:01:43.099Z,15.81
2023-07-06T03:04:12.794Z,15.73
2023-07-06T03:06:40.041Z,15.72
2023-07-06T03:09:08.877Z,15.70
2023-07-06T03:11:36.323Z,15.65
2023-07-06T03:14:04.129Z,15.56
2023-07-06T03:16:41.748Z,15.60
2023-07-06T03:19:13.847Z,15.60
2023-07-06T03:21:40.595Z,15.59
2023-07-06T03:24:11.183Z,15.55
2023-07-06T03:26:38.429Z,15.57
2023-07-06T03:29:06.350Z,15.51
2023-07-06T03:31:34.302Z,15.52
2023-07-06T03:34:02.486Z,15.53
2023-07-06T03:36:34.508Z,15.54
2023-07-06T03:39:02.802Z,15.56
2023-07-06T03:41:29.563Z,15.52
2023-07-06T03:44:00.084Z,15.52
2023-07-06T03:46:33.602Z,15.47
2023-07-06T03:49:01.560Z,15.42
2023-07-06T03:51:28.329Z,15.38
2023-07-06T03:53:54.898Z,15.37
2023-07-06T03:56:30.074Z,15.48
2023-07-06T03:58:58.256Z,15.61
2023-07-06T04:01:26.400Z,15.72
2023-07-06T04:03:53.860Z,15.81
2023-07-06T04:06:22.837Z,15.88
2023-07-06T04:08:51.063Z,15.82
2023-07-06T04:11:18.030Z,15.79
2023-07-06T04:13:44.896Z,15.82
2023-07-06T04:16:20.182Z,15.94
2023-07-06T04:18:46.953Z,16.07
2023-07-06T04:21:20.989Z,16.08
2023-07-06T04:23:49.374Z,16.16
2023-07-06T04:26:17.823Z,16.16
2023-07-06T04:28:45.928Z,16.18
2023-07-06T04:31:16.198Z,16.17
2023-07-06T04:33:44.853Z,16.12
2023-07-06T04:36:11.441Z,16.04
2023-07-06T04:38:40.576Z,15.94
2023-07-06T04:41:09.435Z,15.84
2023-07-06T04:43:37.657Z,15.78
2023-07-06T04:46:05.204Z,15.72
2023-07-06T04:48:34.218Z,15.70
2023-07-06T04:51:01.097Z,15.68
2023-07-06T04:53:28.368Z,15.68
2023-07-06T04:55:56.231Z,15.67
2023-07-06T04:58:23.750Z,15.70
2023-07-06T05:00:52.041Z,15.77
2023-07-06T05:03:18.764Z,15.88
2023-07-06T05:05:47.412Z,16.01
2023-07-06T05:08:21.018Z,16.18
2023-07-06T05:10:52.577Z,16.30
2023-07-06T05:13:22.556Z,16.43
2023-07-06T05:15:50.305Z,16.30
2023-07-06T05:18:21.702Z,16.27
2023-07-06T05:20:51.103Z,16.24
2023-07-06T05:23:23.585Z,16.34
2023-07-06T05:25:55.591Z,16.54
2023-07-06T05:28:22.991Z,16.67
2023-07-06T05:30:50.640Z,16.74
2023-07-06T05:33:18.877Z,16.76
2023-07-06T05:35:45.570Z,16.78
2023-07-06T05:38:12.120Z,16.66
2023-07-06T05:40:42.517Z,16.66
2023-07-06T05:43:11.540Z,16.74
2023-07-06T05:45:38.420Z,16.81
2023-07-06T05:48:06.739Z,16.92
2023-07-06T05:50:33.497Z,16.95
2023-07-06T05:53:05.597Z,17.04
2023-07-06T05:55:32.356Z,17.14
2023-07-06T05:57:58.959Z,17.29
2023-07-06T06:00:26.109Z,17.37
2023-07-06T06:02:52.797Z,17.28
2023-07-06T06:05:19.436Z,17.21
2023-07-06T06:07:48.648Z,17.24
2023-07-06T06:10:15.625Z,17.26
2023-07-06T06:12:42.657Z,17.25
2023-07-06T06:15:09.650Z,17.39
2023-07-06T06:17:38.874Z,17.52
2023-07-06T06:20:10.313Z,17.63
2023-07-06T06:22:38.883Z,17.80
2023-07-06T06:25:06.702Z,18.09
2023-07-06T06:27:33.609Z,18.37
2023-07-06T06:30:00.315Z,18.78
2023-07-06T06:32:27.115Z,19.09
2023-07-06T06:34:54.036Z,19.33
2023-07-06T06:37:22.065Z,19.45
2023-07-06T06:39:51.541Z,19.60
2023-07-06T06:42:20.767Z,19.65
2023-07-06T06:44:47.649Z,19.88
2023-07-06T06:47:16.209Z,20.15
2023-07-06T06:49:43.692Z,20.05
2023-07-06T06:52:12.709Z,20.22
2023-07-06T06:54:41.455Z,20.80
2023-07-06T06:57:08.537Z,21.11
2023-07-06T06:59:38.276Z,21.07
2023-07-06T07:02:05.676Z,20.97
2023-07-06T07:04:32.530Z,20.87
2023-07-06T07:06:59.571Z,21.24
2023-07-06T07:09:26.808Z,21.35
2023-07-06T07:11:56.207Z,21.46
2023-07-06T07:14:24.074Z,21.82
2023-07-06T07:16:51.814Z,21.82
2023-07-06T07:19:20.477Z,22.22
2023-07-06T07:21:47.854Z,22.73
2023-07-06T07:24:17.909Z,22.87
2023-07-06T07:26:48.232Z,22.84
2023-07-06T07:29:14.550Z,22.44
2023-07-06T07:31:43.186Z,22.27
2023-07-06T07:34:11.283Z,22.11
2023-07-06T07:36:38.185Z,22.50
2023-07-06T07:39:05.906Z,22.95
2023-07-06T07:41:32.957Z,23.47
2023-07-06T07:44:00.193Z,23.23
2023-07-06T07:46:29.999Z,22.70
2023-07-06T07:48:59.685Z,22.99
2023-07-06T07:51:33.033Z,22.79
2023-07-06T07:54:00.311Z,22.48
2023-07-06T07:56:27.935Z,22.96
2023-07-06T07:58:54.842Z,22.79
2023-07-06T08:01:26.227Z,22.49
2023-07-06T08:03:57.801Z,22.46
2023-07-06T08:06:24.620Z,22.62
2023-07-06T08:08:52.452Z,22.97
2023-07-06T08:11:23.213Z,23.49
2023-07-06T08:13:52.044Z,23.20
2023-07-06T08:16:21.136Z,22.97
2023-07-06T08:18:49.837Z,22.65
2023-07-06T08:21:44.808Z,22.39
2023-07-06T08:24:05.937Z,22.56
2023-07-06T08:26:34.570Z,22.87
2023-07-06T08:29:01.524Z,23.17
2023-07-06T08:31:28.515Z,23.29
2023-07-06T08:33:55.244Z,23.01
2023-07-06T08:36:22.551Z,23.35
2023-07-06T08:38:49.175Z,23.24
2023-07-06T08:41:20.306Z,22.88
2023-07-06T08:43:47.822Z,22.58
2023-07-06T08:46:14.835Z,22.46
2023-07-06T08:48:43.377Z,22.80
2023-07-06T08:51:28.996Z,23.40
2023-07-06T08:54:02.838Z,23.44
2023-07-06T08:56:35.262Z,23.41
2023-07-06T08:59:06.093Z,23.14
2023-07-06T09:01:33.682Z,22.94
2023-07-06T09:04:13.591Z,22.93
2023-07-06T09:06:46.516Z,23.32
2023-07-06T09:09:14.529Z,23.62
2023-07-06T09:11:46.355Z,23.91
2023-07-06T09:14:17.475Z,24.00
2023-07-06T09:16:49.091Z,24.25
2023-07-06T09:19:19.291Z,24.58
2023-07-06T09:21:48.691Z,24.49
2023-07-06T09:24:15.839Z,23.69
2023-07-06T09:26:46.117Z,23.15
2023-07-06T09:29:20.386Z,22.93
2023-07-06T09:31:49.352Z,22.87
2023-07-06T09:34:33.072Z,22.73
2023-07-06T09:37:01.584Z,22.47
2023-07-06T09:39:28.638Z,22.68
2023-07-06T09:41:57.040Z,22.83
2023-07-06T09:44:33.864Z,22.77
2023-07-06T09:47:01.311Z,23.02
2023-07-06T09:49:33.719Z,23.21
2023-07-06T09:52:06.630Z,23.11
2023-07-06T09:54:51.726Z,22.99
2023-07-06T09:57:20.760Z,22.88
2023-07-06T09:59:50.672Z,22.67
2023-07-06T10:02:42.920Z,22.49
2023-07-06T10:05:30.899Z,22.57
2023-07-06T10:08:19.193Z,22.78
2023-07-06T10:11:21.510Z,22.94
2023-07-06T10:14:04.149Z,23.10
2023-07-06T10:16:43.959Z,23.47
2023-07-06T10:19:32.462Z,23.58
2023-07-06T10:22:11.365Z,23.52
2023-07-06T10:25:02.692Z,23.52
2023-07-06T10:27:36.872Z,23.64
2023-07-06T10:30:09.423Z,23.65
2023-07-06T10:32:42.459Z,23.91
2023-07-06T10:35:19.781Z,23.92
2023-07-06T10:37:47.993Z,23.82
2023-07-06T10:40:25.249Z,23.70
2023-07-06T10:43:13.359Z,23.96
2023-07-06T10:45:50.015Z,23.98
2023-07-06T10:48:23.408Z,24.18
2023-07-06T10:51:16.344Z,24.51
2023-07-06T10:53:49.050Z,24.75
2023-07-06T10:56:22.324Z,24.35
2023-07-06T10:59:00.087Z,24.35
2023-07-06T11:01:39.261Z,24.53
2023-07-06T11:04:46.454Z,24.56
2023-07-06T11:07:35.964Z,24.42
2023-07-06T11:10:14.772Z,24.46
2023-07-06T11:13:03.926Z,24.66
2023-07-06T11:15:36.563Z,24.98
2023-07-06T11:18:31.045Z,24.94
2023-07-06T11:21:17.343Z,24.60
2023-07-06T11:23:51.834Z,24.44
2023-07-06T11:26:48.977Z,24.37
2023-07-06T11:29:19.840Z,24.53
2023-07-06T11:31:49.432Z,24.64
2023-07-06T11:34:39.517Z,24.52
2023-07-06T11:37:14.697Z,24.86
2023-07-06T11:39:41.600Z,25.15
2023-07-06T11:42:33.220Z,24.88
2023-07-06T11:45:07.055Z,24.88
2023-07-06T11:48:05.294Z,25.03
2023-07-06T11:50:39.226Z,25.10
2023-07-06T11:53:19.076Z,25.06
2023-07-06T11:55:52.422Z,25.24
2023-07-06T11:58:30.369Z,25.31
2023-07-06T12:01:02.369Z,25.12
2023-07-06T12:03:35.528Z,24.87
2023-07-06T12:06:02.088Z,24.64
2023-07-06T12:08:38.493Z,24.55
2023-07-06T12:11:06.690Z,24.28
2023-07-06T12:13:42.313Z,24.27
2023-07-06T12:16:19.948Z,24.27
2023-07-06T12:18:53.940Z,24.32
2023-07-06T12:21:28.711Z,24.50
2023-07-06T12:23:59.860Z,24.86
2023-07-06T12:26:33.343Z,25.23
2023-07-06T12:29:01.254Z,25.49
2023-07-06T12:31:30.742Z,25.77
2023-07-06T12:34:08.195Z,25.95
2023-07-06T12:36:40.331Z,25.83
2023-07-06T12:39:07.659Z,25.35
2023-07-06T12:41:38.704Z,25.25
2023-07-06T12:44:10.516Z,25.31
2023-07-06T12:46:37.822Z,25.33
2023-07-06T12:49:11.776Z,25.34
2023-07-06T12:51:41.135Z,25.38
2023-07-06T12:54:10.832Z,25.49
2023-07-06T12:56:40.917Z,25.70
2023-07-06T12:59:07.925Z,25.74
2023-07-06T13:01:40.420Z,25.30
2023-07-06T13:04:10.576Z,25.21
2023-07-06T13:06:48.768Z,25.27
2023-07-06T13:09:32.384Z,25.40
2023-07-06T13:12:10.765Z,25.67
2023-07-06T13:14:40.703Z,25.46
2023-07-06T13:17:18.399Z,25.51
2023-07-06T13:19:47.461Z,25.62
2023-07-06T13:22:15.133Z,25.75
2023-07-06T13:24:46.567Z,26.01
2023-07-06T13:27:15.287Z,26.19
2023-07-06T13:29:44.629Z,26.09
2023-07-06T13:32:18.822Z,25.96
2023-07-06T13:34:47.742Z,25.57
2023-07-06T13:37:26.101Z,25.66
2023-07-06T13:39:54.830Z,25.95
2023-07-06T13:42:23.873Z,26.19
2023-07-06T13:44:53.736Z,25.97
2023-07-06T13:47:24.656Z,25.77
2023-07-06T13:49:54.582Z,25.80
2023-07-06T13:52:21.659Z,26.04
2023-07-06T13:54:49.744Z,26.26
2023-07-06T13:57:16.349Z,26.39
2023-07-06T13:59:47.627Z,26.71
2023-07-06T14:02:14.991Z,26.64
2023-07-06T14:04:43.647Z,26.77
2023-07-06T14:07:11.033Z,26.75
2023-07-06T14:09:38.272Z,26.73
2023-07-06T14:12:06.518Z,26.81
2023-07-06T14:14:34.996Z,26.85
2023-07-06T14:17:04.595Z,26.70
2023-07-06T14:19:31.421Z,26.77
2023-07-06T14:21:58.056Z,26.49
2023-07-06T14:24:26.725Z,26.55
2023-07-06T14:26:53.956Z,26.79
2023-07-06T14:29:20.768Z,26.88
2023-07-06T14:31:51.670Z,27.00
2023-07-06T14:34:23.575Z,27.14
2023-07-06T14:36:52.840Z,27.22
2023-07-06T14:39:19.821Z,27.36
2023-07-06T14:41:47.163Z,27.40
2023-07-06T14:44:13.988Z,26.85
2023-07-06T14:46:40.930Z,26.97
2023-07-06T14:49:07.484Z,27.12
2023-07-06T14:51:34.049Z,27.13
2023-07-06T14:54:03.765Z,27.28
2023-07-06T14:56:30.426Z,27.29
2023-07-06T14:58:57.202Z,26.87
2023-07-06T15:01:23.869Z,26.54
2023-07-06T15:03:51.351Z,26.46
2023-07-06T15:06:18.296Z,26.32
2023-07-06T15:08:45.923Z,26.05
2023-07-06T15:11:14.779Z,26.07
2023-07-06T15:13:41.770Z,26.23
2023-07-06T15:16:08.728Z,26.41
2023-07-06T15:18:35.466Z,26.48
2023-07-06T15:21:13.746Z,26.77
2023-07-06T15:23:42.250Z,26.99
2023-07-06T15:26:09.722Z,26.90
2023-07-06T15:28:37.020Z,26.67
2023-07-06T15:31:03.696Z,26.72
2023-07-06T15:33:31.635Z,26.66
2023-07-06T15:36:00.888Z,26.68
2023-07-06T15:38:27.635Z,26.85
2023-07-06T15:40:55.196Z,26.99
2023-07-06T15:43:22.322Z,27.10
2023-07-06T15:45:48.991Z,27.04
2023-07-06T15:48:15.558Z,27.10
2023-07-06T15:50:42.386Z,27.04
2023-07-06T15:53:10.674Z,26.89
2023-07-06T15:55:37.912Z,26.92
2023-07-06T15:58:05.808Z,27.05
2023-07-06T16:00:32.838Z,27.08
2023-07-06T16:03:00.688Z,27.12
2023-07-06T16:05:27.959Z,27.28
2023-07-06T16:07:55.589Z,27.20
2023-07-06T16:10:22.345Z,26.77
2023-07-06T16:12:49.390Z,26.54
2023-07-06T16:15:17.379Z,26.60
2023-07-06T16:17:45.683Z,26.82
2023-07-06T16:20:12.823Z,26.74
2023-07-06T16:22:39.611Z,26.50
2023-07-06T16:25:07.723Z,26.58
2023-07-06T16:27:36.530Z,26.74
2023-07-06T16:30:04.885Z,26.88
2023-07-06T16:32:32.059Z,26.83
2023-07-06T16:34:59.355Z,26.78
2023-07-06T16:37:26.318Z,26.81
2023-07-06T16:39:53.071Z,26.77
2023-07-06T16:42:19.787Z,26.77
2023-07-06T16:44:47.449Z,26.58
2023-07-06T16:47:14.185Z,26.51
2023-07-06T16:49:40.926Z,26.61
2023-07-06T16:52:08.062Z,26.67
2023-07-06T16:54:34.814Z,26.35
2023-07-06T16:57:01.868Z,26.27
2023-07-06T16:59:28.667Z,26.23
2023-07-06T17:01:55.314Z,26.14
2023-07-06T17:04:22.131Z,26.15
2023-07-06T17:06:48.710Z,26.01
2023-07-06T17:09:15.396Z,25.98
2023-07-06T17:11:42.205Z,25.93
2023-07-06T17:14:10.173Z,25.93
2023-07-06T17:16:36.785Z,25.97
2023-07-06T17:19:03.613Z,25.89
2023-07-06T17:21:31.704Z,26.01
2023-07-06T17:23:58.771Z,26.00
2023-07-06T17:26:25.386Z,25.88
2023-07-06T17:28:51.922Z,25.86
2023-07-06T17:31:19.000Z,25.82
2023-07-06T17:33:45.976Z,25.79
2023-07-06T17:36:13.057Z,25.78
2023-07-06T17:38:40.106Z,25.80
2023-07-06T17:41:11.462Z,25.86
2023-07-06T17:43:39.825Z,25.83
2023-07-06T17:46:06.985Z,25.67
2023-07-06T17:48:34.759Z,25.51
2023-07-06T17:51:03.068Z,25.37
2023-07-06T17:53:32.535Z,25.32
2023-07-06T17:55:59.596Z,25.31
2023-07-06T17:58:27.245Z,25.28
2023-07-06T18:00:54.671Z,25.27
2023-07-06T18:03:22.056Z,25.22
2023-07-06T18:05:50.554Z,25.24
2023-07-06T18:08:18.115Z,25.18
2023-07-06T18:10:46.828Z,25.09
2023-07-06T18:13:15.744Z,25.02
2023-07-06T18:15:42.514Z,24.98
2023-07-06T18:18:09.188Z,24.98
2023-07-06T18:20:35.971Z,24.98
2023-07-06T18:23:02.775Z,24.95
2023-07-06T18:25:31.846Z,24.91
2023-07-06T18:27:59.788Z,24.90
2023-07-06T18:30:33.461Z,24.92
2023-07-06T18:33:00.129Z,24.89
2023-07-06T18:35:27.947Z,24.76
2023-07-06T18:37:54.847Z,24.85
2023-07-06T18:40:21.746Z,24.88
2023-07-06T18:42:48.532Z,24.76
2023-07-06T18:45:22.552Z,24.76
2023-07-06T18:47:55.677Z,24.66
2023-07-06T18:50:24.365Z,24.58
2023-07-06T18:52:50.990Z,24.37
2023-07-06T18:55:19.095Z,24.33
2023-07-06T18:57:46.434Z,24.23
2023-07-06T19:00:13.348Z,24.20
2023-07-06T19:02:40.140Z,24.09
2023-07-06T19:05:07.593Z,24.01
2023-07-06T19:07:42.032Z,23.88
2023-07-06T19:10:16.104Z,23.73
2023-07-06T19:12:42.708Z,23.62
2023-07-06T19:15:10.158Z,23.56
2023-07-06T19:17:37.149Z,23.46
2023-07-06T19:20:06.717Z,23.30
2023-07-06T19:22:34.697Z,23.26
2023-07-06T19:25:01.562Z,23.21
2023-07-06T19:27:28.112Z,23.15
2023-07-06T19:29:57.069Z,23.08
2023-07-06T19:32:23.916Z,23.00
2023-07-06T19:34:50.682Z,22.91
2023-07-06T19:37:17.433Z,22.80
2023-07-06T19:39:44.819Z,22.68
2023-07-06T19:42:11.450Z,22.61
2023-07-06T19:44:38.578Z,22.58
2023-07-06T19:47:05.705Z,22.51
2023-07-06T19:49:33.327Z,22.44
2023-07-06T19:52:00.132Z,22.36
2023-07-06T19:54:28.030Z,22.28
2023-07-06T19:56:54.753Z,21.98
2023-07-06T19:59:21.503Z,22.14
2023-07-06T20:01:48.223Z,22.05
2023-07-06T20:04:14.789Z,21.98
2023-07-06T20:06:41.718Z,21.97
2023-07-06T20:09:08.315Z,21.91
2023-07-06T20:11:35.746Z,21.87
2023-07-06T20:14:03.367Z,21.86
2023-07-06T20:16:30.152Z,21.79
2023-07-06T20:18:56.961Z,21.76
2023-07-06T20:21:23.626Z,21.62
2023-07-06T20:23:51.088Z,21.58
2023-07-06T20:26:18.342Z,21.56
2023-07-06T20:28:45.251Z,21.46
2023-07-06T20:31:11.847Z,21.37
2023-07-06T20:33:39.254Z,21.40
2023-07-06T20:36:07.310Z,21.31
2023-07-06T20:38:36.046Z,21.24
2023-07-06T20:41:03.375Z,21.13
2023-07-06T20:43:32.233Z,21.08
2023-07-06T20:45:59.944Z,21.07
2023-07-06T20:48:26.667Z,21.02
2023-07-06T20:50:55.211Z,20.92
2023-07-06T20:53:22.329Z,20.77
2023-07-06T20:55:49.348Z,20.77
2023-07-06T20:58:16.484Z,20.70
2023-07-06T21:00:44.556Z,20.54
2023-07-06T21:03:13.567Z,20.64
2023-07-06T21:05:41.637Z,20.69
2023-07-06T21:08:09.000Z,20.51
2023-07-06T21:10:44.904Z,20.53
2023-07-06T21:13:11.917Z,20.47
2023-07-06T21:15:38.713Z,20.41
2023-07-06T21:18:07.278Z,20.20
2023-07-06T21:20:34.084Z,20.11
2023-07-06T21:23:03.662Z,20.28
2023-07-06T21:25:30.254Z,20.24
2023-07-06T21:27:56.754Z,20.14
2023-07-06T21:30:25.417Z,20.03
2023-07-06T21:32:52.770Z,20.01
2023-07-06T21:35:19.617Z,19.92
2023-07-06T21:37:47.586Z,19.89
2023-07-06T21:40:14.224Z,19.78
2023-07-06T21:42:40.831Z,19.81
2023-07-06T21:45:07.678Z,19.67
2023-07-06T21:47:37.117Z,19.65
2023-07-06T21:50:03.796Z,19.55
2023-07-06T21:52:30.582Z,19.48
2023-07-06T21:54:57.383Z,19.33
2023-07-06T21:57:30.505Z,18.82
2023-07-06T21:59:57.520Z,19.38
2023-07-06T22:02:27.457Z,19.28
2023-07-06T22:04:54.153Z,19.02
2023-07-06T22:07:22.661Z,19.15
2023-07-06T22:09:49.455Z,19.10
2023-07-06T22:12:16.102Z,19.04
2023-07-06T22:14:42.776Z,18.65
2023-07-06T22:17:09.536Z,18.82
2023-07-06T22:19:36.323Z,18.91
2023-07-06T22:22:03.477Z,18.73
2023-07-06T22:24:30.194Z,18.84
2023-07-06T22:26:57.252Z,18.67
2023-07-06T22:29:24.199Z,18.76
2023-07-06T22:31:57.047Z,18.69
2023-07-06T22:34:23.890Z,18.63
2023-07-06T22:36:50.371Z,18.32
2023-07-06T22:39:16.883Z,18.43
2023-07-06T22:41:43.698Z,18.47
2023-07-06T22:44:10.478Z,18.42
2023-07-06T22:46:37.278Z,18.50
2023-07-06T22:49:05.824Z,18.32
2023-07-06T22:51:35.828Z,18.39
2023-07-06T22:54:02.681Z,18.31
2023-07-06T22:56:29.185Z,18.12
2023-07-06T22:58:55.753Z,18.09
2023-07-06T23:01:26.178Z,18.05
2023-07-06T23:03:55.178Z,18.11
2023-07-06T23:06:28.296Z,18.08
2023-07-06T23:08:56.598Z,17.83
2023-07-06T23:11:25.888Z,17.80
2023-07-06T23:13:56.403Z,17.93
2023-07-06T23:16:26.912Z,17.88
2023-07-06T23:18:54.370Z,17.87
2023-07-06T23:21:24.293Z,17.83
2023-07-06T23:23:51.037Z,17.95
2023-07-06T23:26:25.141Z,17.98
2023-07-06T23:28:56.048Z,17.83
2023-07-06T23:31:29.112Z,17.60
2023-07-06T23:34:03.223Z,17.95
2023-07-06T23:36:30.793Z,17.88
2023-07-06T23:39:00.595Z,17.91
2023-07-06T23:41:27.962Z,17.85
2023-07-06T23:43:54.946Z,17.71
2023-07-06T23:46:21.879Z,17.71
2023-07-06T23:48:52.991Z,17.59
2023-07-06T23:51:22.064Z,17.58
2023-07-06T23:53:49.600Z,17.49
2023-07-06T23:56:17.267Z,17.58
2023-07-06T23:58:43.894Z,17.51
